Time;durP1;ratioP1;P1;durP2;ratioP2;P2;SDS_P1;SDS_P2;PMS_P1;PMS_P2;Temp;Humidity;BMP_temperature;BMP_pressure;BME280_temperature;BME280_humidity;BME280_pressure;Samples;Min_cycle;Max_cycle;Signal;HPM_P1;HPM_P2
2021/01/02 00:01:18;;;;;;;;;;;20.60;55.50;;;;;;5068837;28;1334;-67
2021/01/02 00:03:52;;;;;;;;;;;20.60;55.50;;;;;;5068819;28;1540;-69
2021/01/02 00:06:27;;;;;;;;;;;20.60;56.10;;;;;;5068795;28;1290;-67
2021/01/02 00:08:54;;;;;;;;;;;20.60;55.50;;;;;;5053534;28;1287;-68
2021/01/02 00:11:23;;;;;;;;;;;20.60;55.50;;;;;;5053301;28;1335;-67
2021/01/02 00:13:58;;;;;;;;;;;20.60;55.60;;;;;;5053221;28;1914;-68
2021/01/02 00:16:46;;;;;;;;;;;20.60;55.60;;;;;;5035242;28;1368;-67
2021/01/02 00:19:21;;;;;;;;;;;20.50;55.50;;;;;;5006868;28;1310;-68
2021/01/02 00:21:48;;;;;;;;;;;20.50;55.50;;;;;;5035017;28;1313;-67
2021/01/02 00:24:20;;;;;;;;;;;20.50;55.60;;;;;;5035116;28;1329;-67
2021/01/02 00:26:46;;;;;;;;;;;20.50;55.60;;;;;;5035185;28;1308;-68
2021/01/02 00:29:15;;;;;;;;;;;20.50;55.60;;;;;;5053098;28;1245;-67
2021/01/02 00:31:59;;;;;;;;;;;20.50;55.60;;;;;;5034903;28;1360;-67
2021/01/02 00:34:28;;;;;;;;;;;20.50;55.60;;;;;;5052994;28;1902;-68
2021/01/02 00:37:08;;;;;;;;;;;20.50;55.60;;;;;;5052720;28;1284;-68
2021/01/02 00:39:39;;;;;;;;;;;20.50;55.60;;;;;;5053080;28;1344;-67
2021/01/02 00:42:05;;;;;;;;;;;20.50;55.60;;;;;;5052920;28;1374;-66
2021/01/02 00:44:31;;;;;;;;;;;20.50;55.70;;;;;;5034130;28;1297;-67
2021/01/02 00:46:58;;;;;;;;;;;20.50;55.70;;;;;;5052567;28;1021;-67
2021/01/02 00:49:24;;;;;;;;;;;20.50;55.70;;;;;;5052403;28;1326;-68
2021/01/02 00:51:52;;;;;;;;;;;20.50;55.70;;;;;;5034972;28;1228;-67
2021/01/02 00:54:18;;;;;;;;;;;20.50;55.70;;;;;;5068160;28;1902;-68
2021/01/02 00:56:48;;;;;;;;;;;20.50;55.70;;;;;;5067036;28;1658;-68
2021/01/02 00:59:17;;;;;;;;;;;20.50;55.70;;;;;;5034685;28;1264;-68
2021/01/02 01:01:46;;;;;;;;;;;20.50;55.70;;;;;;5052344;28;1283;-67
2021/01/02 01:04:30;;;;;;;;;;;20.50;55.80;;;;;;5052112;28;1391;-67
2021/01/02 01:06:56;;;;;;;;;;;20.50;55.70;;;;;;5051787;28;1304;-68
2021/01/02 01:09:24;;;;;;;;;;;20.50;55.80;;;;;;5034458;28;1220;-67
2021/01/02 01:11:52;;;;;;;;;;;20.50;55.80;;;;;;5050859;28;1307;-68
2021/01/02 01:14:17;;;;;;;;;;;20.40;55.70;;;;;;5052037;28;1898;-68
2021/01/02 01:16:43;;;;;;;;;;;20.40;55.80;;;;;;5034526;28;1420;-68
2021/01/02 01:19:08;;;;;;;;;;;20.40;55.80;;;;;;5052654;28;1344;-68
2021/01/02 01:21:34;;;;;;;;;;;20.40;55.80;;;;;;5034185;28;1219;-69
2021/01/02 01:24:03;;;;;;;;;;;20.40;55.80;;;;;;5034080;28;1365;-69
2021/01/02 01:26:47;;;;;;;;;;;20.40;55.80;;;;;;5033825;28;1325;-68
2021/01/02 01:29:16;;;;;;;;;;;20.40;55.80;;;;;;5051882;28;1272;-68
2021/01/02 01:31:46;;;;;;;;;;;20.40;55.80;;;;;;5018231;28;1624;-68
2021/01/02 01:34:12;;;;;;;;;;;20.40;55.80;;;;;;5034023;28;1953;-68
2021/01/02 01:36:39;;;;;;;;;;;20.40;55.90;;;;;;5017475;28;1313;-68
2021/01/02 01:39:05;;;;;;;;;;;20.40;55.90;;;;;;5034708;28;1279;-67
2021/01/02 01:41:32;;;;;;;;;;;20.40;55.90;;;;;;5052013;28;1355;-68
2021/01/02 01:44:10;;;;;;;;;;;20.40;55.90;;;;;;5034093;28;1337;-68
2021/01/02 01:46:47;;;;;;;;;;;20.40;55.90;;;;;;5051866;28;1155;-68
2021/01/02 01:49:12;;;;;;;;;;;20.40;55.90;;;;;;5034089;28;1477;-69
2021/01/02 01:51:38;;;;;;;;;;;20.40;55.90;;;;;;5017287;28;1467;-68
2021/01/02 01:54:27;;;;;;;;;;;20.40;55.90;;;;;;5051379;28;1956;-68
2021/01/02 01:56:52;;;;;;;;;;;20.40;55.90;;;;;;5046131;28;1347;-69
2021/01/02 01:59:18;;;;;;;;;;;20.40;56.00;;;;;;5034077;28;1281;-68
2021/01/02 02:01:50;;;;;;;;;;;20.40;55.90;;;;;;5052200;28;1264;-68
2021/01/02 02:04:25;;;;;;;;;;;20.40;56.00;;;;;;5034079;28;1605;-68
2021/01/02 02:06:58;;;;;;;;;;;20.40;56.00;;;;;;5035515;28;1361;-69
2021/01/02 02:09:23;;;;;;;;;;;20.30;55.90;;;;;;5037947;28;1298;-68
2021/01/02 02:11:58;;;;;;;;;;;20.30;55.90;;;;;;5037802;28;1312;-68
2021/01/02 02:14:27;;;;;;;;;;;20.30;55.90;;;;;;5038018;28;1898;-68
2021/01/02 02:16:56;;;;;;;;;;;20.30;55.90;;;;;;5055748;28;1398;-67
2021/01/02 02:19:22;;;;;;;;;;;20.30;55.90;;;;;;5070905;28;1311;-68
2021/01/02 02:21:47;;;;;;;;;;;20.30;55.90;;;;;;5055659;28;1349;-68
2021/01/02 02:24:13;;;;;;;;;;;20.30;56.00;;;;;;5071087;28;1314;-68
2021/01/02 02:26:38;;;;;;;;;;;20.30;56.00;;;;;;5070783;28;1318;-68
2021/01/02 02:29:04;;;;;;;;;;;20.30;56.00;;;;;;5070657;28;1323;-67
2021/01/02 02:31:30;;;;;;;;;;;20.30;56.00;;;;;;5055566;28;1340;-67
2021/01/02 02:33:55;;;;;;;;;;;20.30;56.00;;;;;;5070420;28;1917;-68
2021/01/02 02:36:21;;;;;;;;;;;20.30;56.00;;;;;;5054857;28;1237;-69
2021/01/02 02:38:47;;;;;;;;;;;20.30;56.00;;;;;;5055257;28;1284;-68
2021/01/02 02:41:12;;;;;;;;;;;20.30;56.00;;;;;;5055464;28;1358;-67
2021/01/02 02:43:39;;;;;;;;;;;20.30;56.00;;;;;;5020693;28;1395;-67
2021/01/02 02:46:07;;;;;;;;;;;20.30;56.00;;;;;;5054532;28;1088;-68
2021/01/02 02:48:32;;;;;;;;;;;20.40;56.00;;;;;;5054840;28;1280;-68
2021/01/02 02:50:58;;;;;;;;;;;20.40;56.00;;;;;;5037009;28;1490;-68
2021/01/02 02:53:23;;;;;;;;;;;20.40;56.00;;;;;;5054793;28;1293;-69
2021/01/02 02:55:48;;;;;;;;;;;20.40;55.90;;;;;;5070058;28;1902;-68
2021/01/02 02:58:14;;;;;;;;;;;20.40;55.90;;;;;;5070210;28;1373;-67
2021/01/02 03:00:39;;;;;;;;;;;20.40;56.40;;;;;;5033673;28;1330;-67
2021/01/02 03:03:09;;;;;;;;;;;20.40;55.80;;;;;;5037010;28;1364;-67
2021/01/02 03:05:34;;;;;;;;;;;20.40;55.80;;;;;;5053890;28;1333;-67
2021/01/02 03:08:00;;;;;;;;;;;20.40;55.80;;;;;;5054506;28;1272;-68
2021/01/02 03:10:25;;;;;;;;;;;20.40;55.70;;;;;;5053593;28;1352;-68
2021/01/02 03:12:51;;;;;;;;;;;20.50;55.70;;;;;;5053741;28;1357;-67
2021/01/02 03:15:18;;;;;;;;;;;20.50;55.70;;;;;;5036256;28;1898;-67
2021/01/02 03:17:43;;;;;;;;;;;20.50;55.70;;;;;;5036526;28;1313;-67
2021/01/02 03:20:09;;;;;;;;;;;20.50;55.70;;;;;;5048557;28;1417;-67
2021/01/02 03:22:35;;;;;;;;;;;20.50;55.70;;;;;;5035668;28;1309;-67
2021/01/02 03:25:00;;;;;;;;;;;20.50;55.60;;;;;;5052537;28;1299;-68
2021/01/02 03:27:26;;;;;;;;;;;20.50;55.60;;;;;;5018016;28;1355;-68
2021/01/02 03:29:51;;;;;;;;;;;20.50;55.60;;;;;;5052446;28;1348;-67
2021/01/02 03:32:17;;;;;;;;;;;20.50;55.60;;;;;;5052312;28;1380;-67
2021/01/02 03:34:42;;;;;;;;;;;20.50;55.60;;;;;;5051567;28;1995;-69
2021/01/02 03:37:08;;;;;;;;;;;20.50;55.60;;;;;;5051828;28;1344;-67
2021/01/02 03:39:33;;;;;;;;;;;20.50;55.60;;;;;;5053835;28;1428;-67
2021/01/02 03:41:59;;;;;;;;;;;20.50;55.60;;;;;;5035567;28;1375;-68
2021/01/02 03:44:24;;;;;;;;;;;20.50;55.60;;;;;;5051607;28;1699;-68
2021/01/02 03:46:50;;;;;;;;;;;20.50;55.60;;;;;;5051664;28;1352;-68
2021/01/02 03:49:15;;;;;;;;;;;20.50;56.10;;;;;;5051534;28;1327;-69
2021/01/02 03:51:41;;;;;;;;;;;20.50;55.60;;;;;;5050788;28;1368;-69
2021/01/02 03:54:06;;;;;;;;;;;20.50;55.60;;;;;;5051379;28;1902;-68
2021/01/02 03:56:31;;;;;;;;;;;20.50;55.50;;;;;;5039026;28;1401;-67
2021/01/02 03:58:57;;;;;;;;;;;20.50;55.50;;;;;;5053565;28;1123;-68
2021/01/02 04:01:22;;;;;;;;;;;20.50;55.50;;;;;;5054025;28;1402;-67
2021/01/02 04:03:48;;;;;;;;;;;20.50;55.50;;;;;;5054037;28;1100;-67
2021/01/02 04:06:13;;;;;;;;;;;20.50;55.50;;;;;;5035765;28;1437;-67
2021/01/02 04:08:39;;;;;;;;;;;20.50;55.50;;;;;;5053359;28;1223;-68
2021/01/02 04:11:04;;;;;;;;;;;20.50;55.50;;;;;;5019215;28;1358;-69
2021/01/02 04:13:30;;;;;;;;;;;20.50;55.50;;;;;;5035200;28;1582;-67
2021/01/02 04:15:55;;;;;;;;;;;20.50;55.50;;;;;;5053094;28;1960;-67
2021/01/02 04:18:21;;;;;;;;;;;20.50;55.50;;;;;;5053536;28;1195;-68
2021/01/02 04:20:47;;;;;;;;;;;20.50;55.50;;;;;;5036010;28;1372;-68
2021/01/02 04:23:13;;;;;;;;;;;20.50;55.50;;;;;;5035119;28;1104;-68
2021/01/02 04:25:39;;;;;;;;;;;20.50;55.50;;;;;;5053026;28;1475;-67
2021/01/02 04:28:06;;;;;;;;;;;20.50;55.50;;;;;;5053046;28;1140;-67
2021/01/02 04:30:32;;;;;;;;;;;20.50;55.50;;;;;;5034316;28;1275;-68
2021/01/02 04:32:58;;;;;;;;;;;20.50;55.50;;;;;;5052950;28;1112;-67
2021/01/02 04:35:23;;;;;;;;;;;20.50;55.50;;;;;;5052652;28;1957;-68
2021/01/02 04:37:49;;;;;;;;;;;20.50;55.50;;;;;;5052428;28;1309;-67
2021/01/02 04:40:14;;;;;;;;;;;20.50;55.50;;;;;;5053223;28;1306;-68
2021/01/02 04:42:40;;;;;;;;;;;20.50;55.50;;;;;;5035032;28;1175;-68
2021/01/02 04:45:06;;;;;;;;;;;20.50;55.50;;;;;;5052173;28;1166;-67
2021/01/02 04:47:31;;;;;;;;;;;20.50;55.50;;;;;;5052780;28;1171;-68
2021/01/02 04:49:58;;;;;;;;;;;20.50;55.50;;;;;;5035024;28;1349;-68
2021/01/02 04:52:23;;;;;;;;;;;20.50;55.50;;;;;;5034682;28;1115;-67
2021/01/02 04:54:49;;;;;;;;;;;20.50;55.50;;;;;;5067789;28;1906;-67
2021/01/02 04:57:15;;;;;;;;;;;20.50;55.50;;;;;;5068132;28;1210;-67
2021/01/02 04:59:41;;;;;;;;;;;20.50;55.50;;;;;;5034563;28;1218;-68
2021/01/02 05:02:07;;;;;;;;;;;20.50;55.50;;;;;;5034759;28;1275;-67
2021/01/02 05:04:33;;;;;;;;;;;20.50;55.50;;;;;;5034569;28;1179;-67
2021/01/02 05:06:58;;;;;;;;;;;20.50;55.50;;;;;;5052494;28;1179;-68
2021/01/02 05:09:24;;;;;;;;;;;20.50;55.50;;;;;;5052323;28;1209;-68
2021/01/02 05:11:49;;;;;;;;;;;20.50;55.50;;;;;;5034338;28;1215;-67
2021/01/02 05:14:14;;;;;;;;;;;20.50;55.50;;;;;;5052344;28;1902;-68
2021/01/02 05:16:41;;;;;;;;;;;20.50;55.50;;;;;;5052333;28;1417;-68
2021/01/02 05:19:10;;;;;;;;;;;20.50;55.50;;;;;;5052862;28;1045;-67
2021/01/02 05:21:36;;;;;;;;;;;20.50;55.50;;;;;;5034266;28;1318;-68
2021/01/02 05:24:05;;;;;;;;;;;20.50;55.50;;;;;;5051969;28;1264;-68
2021/01/02 05:26:30;;;;;;;;;;;20.50;55.50;;;;;;5051901;28;1143;-67
2021/01/02 05:29:16;;;;;;;;;;;20.50;55.50;;;;;;5052067;28;1163;-68
2021/01/02 05:31:46;;;;;;;;;;;20.50;55.50;;;;;;5051454;28;1315;-67
2021/01/02 05:34:11;;;;;;;;;;;20.50;55.50;;;;;;5051490;28;1894;-67
2021/01/02 05:36:37;;;;;;;;;;;20.50;55.50;;;;;;5034519;28;1305;-67
2021/01/02 05:39:03;;;;;;;;;;;20.50;55.50;;;;;;5034835;28;1179;-68
2021/01/02 05:41:29;;;;;;;;;;;20.50;55.50;;;;;;5052667;28;1227;-68
2021/01/02 05:44:13;;;;;;;;;;;20.50;55.50;;;;;;5038506;28;1354;-68
2021/01/02 05:46:48;;;;;;;;;;;20.50;55.50;;;;;;5037876;28;1316;-67
2021/01/02 05:49:29;;;;;;;;;;;20.50;55.50;;;;;;5038842;28;1069;-67
2021/01/02 05:51:58;;;;;;;;;;;20.50;55.50;;;;;;5087736;23;2008;-68
2021/01/02 05:54:27;;;;;;;;;;;20.50;55.50;;;;;;5069742;28;1985;-68
2021/01/02 05:56:54;;;;;;;;;;;20.50;55.50;;;;;;5057887;28;1342;-68
2021/01/02 05:59:27;;;;;;;;;;;20.50;55.50;;;;;;5076081;28;1295;-68
2021/01/02 06:01:52;;;;;;;;;;;20.50;55.50;;;;;;5075975;28;1286;-68
2021/01/02 06:04:17;;;;;;;;;;;20.50;55.50;;;;;;5075685;28;1095;-68
2021/01/02 06:06:43;;;;;;;;;;;20.50;55.50;;;;;;5075709;28;1336;-68
2021/01/02 06:09:08;;;;;;;;;;;20.50;55.50;;;;;;5075719;28;1107;-68
2021/01/02 06:11:34;;;;;;;;;;;20.50;55.50;;;;;;5074029;28;1361;-68
2021/01/02 06:13:59;;;;;;;;;;;20.50;55.50;;;;;;5059556;28;2061;-66
2021/01/02 06:16:25;;;;;;;;;;;20.50;55.50;;;;;;5043970;28;1765;-67
2021/01/02 06:18:50;;;;;;;;;;;20.50;56.10;;;;;;5053138;28;1401;-67
2021/01/02 06:21:16;;;;;;;;;;;20.50;55.50;;;;;;5054531;28;1361;-67
2021/01/02 06:23:42;;;;;;;;;;;20.50;55.50;;;;;;5064286;28;1114;-67
2021/01/02 06:26:08;;;;;;;;;;;20.50;55.50;;;;;;5067686;28;1025;-69
2021/01/02 06:28:34;;;;;;;;;;;20.50;55.50;;;;;;5073400;28;1094;-66
2021/01/02 06:31:00;;;;;;;;;;;20.50;55.50;;;;;;5071917;28;1311;-68
2021/01/02 06:33:25;;;;;;;;;;;20.50;55.50;;;;;;5061487;28;1114;-68
2021/01/02 06:35:51;;;;;;;;;;;20.50;55.50;;;;;;5065954;28;1970;-68
2021/01/02 06:38:16;;;;;;;;;;;20.50;55.50;;;;;;5064525;28;1303;-68
2021/01/02 06:40:45;;;;;;;;;;;20.50;55.50;;;;;;5056531;28;1454;-68
2021/01/02 06:43:12;;;;;;;;;;;20.50;55.50;;;;;;5064672;28;1072;-68
2021/01/02 06:45:37;;;;;;;;;;;20.50;55.50;;;;;;5069614;28;1387;-67
2021/01/02 06:48:27;;;;;;;;;;;20.50;55.50;;;;;;5044484;28;1107;-68
2021/01/02 06:50:56;;;;;;;;;;;20.50;55.50;;;;;;5042214;28;1388;-68
2021/01/02 06:53:22;;;;;;;;;;;20.50;55.50;;;;;;5052572;28;1399;-68
2021/01/02 06:56:00;;;;;;;;;;;20.50;55.50;;;;;;5053676;28;1971;-68
2021/01/02 06:58:35;;;;;;;;;;;20.50;55.50;;;;;;5055406;28;1390;-67
2021/01/02 07:01:03;;;;;;;;;;;20.50;55.50;;;;;;5055006;28;1264;-68
2021/01/02 07:03:47;;;;;;;;;;;20.50;55.50;;;;;;5053384;28;1091;-68
2021/01/02 07:08:47;;;;;;;;;;;20.50;55.50;;;;;;5075285;28;1376;-68
2021/01/02 07:11:19;;;;;;;;;;;20.50;55.50;;;;;;5074686;28;1317;-68
2021/01/02 07:13:44;;;;;;;;;;;20.50;55.50;;;;;;5057082;28;2233;-68
2021/01/02 07:16:29;;;;;;;;;;;20.50;55.50;;;;;;5053777;28;1961;-68
2021/01/02 07:18:54;;;;;;;;;;;20.50;55.50;;;;;;5053730;28;1063;-68
2021/01/02 07:21:32;;;;;;;;;;;20.50;55.50;;;;;;5054510;28;1296;-67
2021/01/02 07:24:13;;;;;;;;;;;20.50;55.50;;;;;;5053904;28;1135;-68
2021/01/02 07:26:39;;;;;;;;;;;20.50;55.50;;;;;;5052674;28;1434;-68
2021/01/02 07:29:04;;;;;;;;;;;20.50;55.50;;;;;;5054500;28;1279;-69
2021/01/02 07:31:30;;;;;;;;;;;20.50;55.50;;;;;;5040729;28;1901;-68
2021/01/02 07:33:55;;;;;;;;;;;20.50;55.50;;;;;;5053145;28;1965;-67
2021/01/02 07:36:21;;;;;;;;;;;20.50;55.50;;;;;;5073094;28;1270;-67
2021/01/02 07:38:46;;;;;;;;;;;20.50;55.50;;;;;;5073382;28;1352;-68
2021/01/02 07:41:12;;;;;;;;;;;20.50;55.50;;;;;;5063983;28;1314;-68
2021/01/02 07:43:37;;;;;;;;;;;20.50;55.60;;;;;;5048872;28;1259;-67
2021/01/02 07:46:03;;;;;;;;;;;20.50;55.50;;;;;;5071248;28;1329;-67
2021/01/02 07:48:28;;;;;;;;;;;20.50;55.50;;;;;;5072947;28;1278;-67
2021/01/02 07:50:55;;;;;;;;;;;20.50;55.50;;;;;;5066313;28;1291;-67
2021/01/02 07:53:21;;;;;;;;;;;20.50;55.50;;;;;;5054106;28;1201;-67
2021/01/02 07:55:46;;;;;;;;;;;20.50;55.50;;;;;;5053852;28;1909;-67
2021/01/02 07:58:11;;;;;;;;;;;20.50;55.50;;;;;;5053328;28;1362;-67
2021/01/02 08:00:37;;;;;;;;;;;20.50;55.50;;;;;;5052265;28;1296;-68
2021/01/02 08:03:03;;;;;;;;;;;20.50;55.50;;;;;;5052790;28;1305;-67
2021/01/02 08:05:29;;;;;;;;;;;20.50;55.50;;;;;;5040471;28;1466;-68
2021/01/02 08:07:58;;;;;;;;;;;20.50;55.50;;;;;;5073520;28;1298;-67
2021/01/02 08:10:23;;;;;;;;;;;20.50;55.50;;;;;;5072348;28;1302;-66
2021/01/02 08:12:49;;;;;;;;;;;20.50;55.50;;;;;;5068660;28;1301;-67
2021/01/02 08:15:18;;;;;;;;;;;20.50;55.50;;;;;;5051701;28;1902;-66
2021/01/02 08:17:43;;;;;;;;;;;20.50;55.50;;;;;;5049917;28;1398;-67
2021/01/02 08:20:09;;;;;;;;;;;20.50;55.50;;;;;;5051412;28;1147;-67
2021/01/02 08:22:38;;;;;;;;;;;20.50;55.50;;;;;;5053223;28;1281;-68
2021/01/02 08:25:24;;;;;;;;;;;20.50;55.50;;;;;;5051294;28;1307;-67
2021/01/02 08:27:49;;;;;;;;;;;20.50;55.50;;;;;;5051812;28;1409;-67
2021/01/02 08:30:15;;;;;;;;;;;20.50;55.50;;;;;;5052623;28;1323;-67
2021/01/02 08:32:41;;;;;;;;;;;20.50;55.50;;;;;;5034590;28;1385;-66
2021/01/02 08:35:30;;;;;;;;;;;20.50;55.60;;;;;;5052560;28;1902;-67
2021/01/02 08:38:08;;;;;;;;;;;20.50;55.50;;;;;;5042148;28;1330;-67
2021/01/02 08:40:38;;;;;;;;;;;20.50;55.60;;;;;;5053484;28;1382;-67
2021/01/02 08:43:03;;;;;;;;;;;20.50;55.60;;;;;;5052097;28;1298;-67
2021/01/02 08:45:29;;;;;;;;;;;20.50;55.50;;;;;;5053212;28;1303;-67
2021/01/02 08:48:04;;;;;;;;;;;20.50;55.50;;;;;;5052613;28;1258;-67
2021/01/02 08:50:30;;;;;;;;;;;20.50;55.50;;;;;;5051798;28;1300;-67
2021/01/02 08:52:55;;;;;;;;;;;20.50;55.50;;;;;;5052357;28;1256;-67
2021/01/02 08:55:21;;;;;;;;;;;20.50;55.50;;;;;;5051368;28;1981;-67
2021/01/02 08:57:50;;;;;;;;;;;20.50;55.50;;;;;;5052466;28;1303;-67
2021/01/02 09:00:16;;;;;;;;;;;20.50;55.50;;;;;;5052379;28;1276;-67
2021/01/02 09:02:54;;;;;;;;;;;20.50;55.50;;;;;;5051798;28;1350;-67
2021/01/02 09:05:29;;;;;;;;;;;20.50;55.50;;;;;;5052440;28;1430;-67
2021/01/02 09:08:04;;;;;;;;;;;20.50;55.50;;;;;;5050862;28;1256;-67
2021/01/02 09:10:30;;;;;;;;;;;20.50;55.50;;;;;;5051329;28;1395;-67
2021/01/02 09:13:12;;;;;;;;;;;20.50;55.50;;;;;;5050840;28;1347;-67
2021/01/02 09:15:47;;;;;;;;;;;20.50;55.50;;;;;;5034081;28;1952;-68
2021/01/02 09:18:14;;;;;;;;;;;20.50;56.10;;;;;;5052500;28;1147;-67
2021/01/02 09:20:39;;;;;;;;;;;20.50;55.50;;;;;;5050840;28;1366;-67
2021/01/02 09:23:05;;;;;;;;;;;20.50;55.50;;;;;;5051000;28;1307;-67
2021/01/02 09:25:31;;;;;;;;;;;20.50;55.50;;;;;;5052274;28;1308;-67
2021/01/02 09:27:56;;;;;;;;;;;20.50;55.50;;;;;;5051179;28;1309;-67
2021/01/02 09:30:22;;;;;;;;;;;20.50;55.50;;;;;;5050765;28;1422;-67
2021/01/02 09:32:48;;;;;;;;;;;20.50;55.50;;;;;;5050917;28;1345;-67
2021/01/02 09:35:13;;;;;;;;;;;20.50;55.50;;;;;;5051648;28;1894;-67
2021/01/02 09:37:40;;;;;;;;;;;20.50;55.50;;;;;;5052094;28;1355;-67
2021/01/02 09:40:13;;;;;;;;;;;20.50;55.50;;;;;;5051191;28;1316;-66
2021/01/02 09:42:38;;;;;;;;;;;20.50;55.50;;;;;;5052245;28;1383;-67
2021/01/02 09:45:04;;;;;;;;;;;20.50;55.50;;;;;;5051443;28;1343;-67
2021/01/02 09:47:29;;;;;;;;;;;20.50;55.50;;;;;;5052455;28;1225;-67
2021/01/02 09:49:55;;;;;;;;;;;20.50;55.50;;;;;;5052180;28;1287;-67
2021/01/02 09:52:20;;;;;;;;;;;20.50;55.50;;;;;;5051561;28;1375;-67
2021/01/02 09:54:46;;;;;;;;;;;20.50;55.50;;;;;;5051559;28;1916;-67
2021/01/02 09:57:11;;;;;;;;;;;20.50;55.50;;;;;;5051709;28;1337;-67
2021/01/02 09:59:37;;;;;;;;;;;20.50;56.10;;;;;;5052427;28;1384;-67
2021/01/02 10:02:02;;;;;;;;;;;20.50;55.50;;;;;;5051927;28;1370;-67
2021/01/02 10:04:28;;;;;;;;;;;20.50;55.60;;;;;;5051877;28;1276;-67
2021/01/02 10:06:53;;;;;;;;;;;20.40;55.50;;;;;;5050803;28;1388;-67
2021/01/02 10:09:19;;;;;;;;;;;20.50;55.30;;;;;;5052466;28;1386;-67
2021/01/02 10:11:44;;;;;;;;;;;20.50;55.30;;;;;;5051779;28;1373;-67
2021/01/02 10:14:09;;;;;;;;;;;20.60;55.20;;;;;;5051432;28;1898;-67
2021/01/02 10:16:35;;;;;;;;;;;20.70;55.10;;;;;;5051028;28;1372;-67
2021/01/02 10:19:00;;;;;;;;;;;20.80;54.90;;;;;;5051788;28;1335;-67
2021/01/02 10:21:26;;;;;;;;;;;21.00;54.70;;;;;;5051329;28;1362;-67
2021/01/02 10:23:51;;;;;;;;;;;21.10;54.40;;;;;;5051690;28;1295;-67
2021/01/02 10:26:21;;;;;;;;;;;21.20;54.20;;;;;;5050930;28;1323;-67
2021/01/02 10:28:47;;;;;;;;;;;21.30;54.00;;;;;;5054983;28;1349;-67
2021/01/02 10:31:18;;;;;;;;;;;21.40;53.80;;;;;;5055517;28;1342;-67
2021/01/02 10:33:45;;;;;;;;;;;21.50;54.10;;;;;;5055315;28;1256;-67
2021/01/02 10:36:10;;;;;;;;;;;21.50;53.30;;;;;;5054503;28;1959;-67
2021/01/02 10:38:36;;;;;;;;;;;21.60;53.20;;;;;;5055250;28;1369;-67
2021/01/02 10:41:01;;;;;;;;;;;21.60;53.00;;;;;;5055639;28;1385;-67
2021/01/02 10:43:27;;;;;;;;;;;21.70;53.00;;;;;;5054917;28;1280;-67
2021/01/02 10:45:52;;;;;;;;;;;21.70;52.90;;;;;;5054332;28;1363;-67
2021/01/02 10:48:18;;;;;;;;;;;21.70;52.80;;;;;;5055253;28;1336;-66
2021/01/02 10:50:43;;;;;;;;;;;21.70;52.80;;;;;;5054868;28;1277;-67
2021/01/02 10:53:09;;;;;;;;;;;21.70;52.70;;;;;;5037102;28;1351;-67
2021/01/02 10:55:34;;;;;;;;;;;21.70;52.70;;;;;;5055301;28;1914;-67
2021/01/02 10:58:00;;;;;;;;;;;21.80;52.70;;;;;;5054605;28;1252;-67
2021/01/02 11:00:25;;;;;;;;;;;21.80;52.70;;;;;;5055076;28;1288;-67
2021/01/02 11:02:51;;;;;;;;;;;21.70;52.60;;;;;;5055005;28;1315;-67
2021/01/02 11:05:16;;;;;;;;;;;21.80;52.70;;;;;;5054875;28;1327;-67
2021/01/02 11:07:42;;;;;;;;;;;21.80;52.70;;;;;;5054751;28;1293;-67
2021/01/02 11:10:07;;;;;;;;;;;21.80;52.70;;;;;;5053108;28;1332;-67
2021/01/02 11:12:33;;;;;;;;;;;21.80;52.70;;;;;;5054502;28;1278;-67
2021/01/02 11:14:58;;;;;;;;;;;21.70;52.70;;;;;;5054218;28;1890;-67
2021/01/02 11:17:24;;;;;;;;;;;21.70;52.80;;;;;;5054433;28;1096;-67
2021/01/02 11:19:49;;;;;;;;;;;21.70;52.80;;;;;;5054478;28;1268;-67
2021/01/02 11:22:15;;;;;;;;;;;21.70;52.80;;;;;;5054663;28;1279;-67
2021/01/02 11:24:41;;;;;;;;;;;21.70;52.90;;;;;;5052377;28;1357;-67
2021/01/02 11:27:07;;;;;;;;;;;21.70;52.90;;;;;;5054371;28;1282;-68
2021/01/02 11:29:33;;;;;;;;;;;21.70;52.90;;;;;;5054543;28;1315;-67
2021/01/02 11:31:58;;;;;;;;;;;21.70;52.90;;;;;;5054261;28;1315;-67
2021/01/02 11:34:24;;;;;;;;;;;21.70;53.00;;;;;;5053668;28;2007;-67
2021/01/02 11:36:59;;;;;;;;;;;21.70;53.00;;;;;;5052721;28;1286;-67
2021/01/02 11:39:24;;;;;;;;;;;21.60;53.00;;;;;;5036092;28;1363;-67
2021/01/02 11:41:50;;;;;;;;;;;21.60;53.10;;;;;;5054260;28;1299;-67
2021/01/02 11:44:17;;;;;;;;;;;21.60;53.10;;;;;;5053977;28;1195;-67
2021/01/02 11:46:44;;;;;;;;;;;21.60;53.10;;;;;;5052316;28;1354;-67
2021/01/02 11:49:10;;;;;;;;;;;21.60;53.20;;;;;;5054039;28;1316;-67
2021/01/02 11:51:35;;;;;;;;;;;21.60;53.20;;;;;;5054707;28;1322;-68
2021/01/02 11:54:01;;;;;;;;;;;21.60;53.20;;;;;;5052188;28;1894;-68
2021/01/02 11:56:27;;;;;;;;;;;21.60;53.20;;;;;;5052564;28;1306;-68
2021/01/02 11:59:02;;;;;;;;;;;21.50;53.20;;;;;;5052482;28;1433;-67
2021/01/02 12:01:38;;;;;;;;;;;21.50;53.30;;;;;;5052371;28;1353;-68
2021/01/02 12:04:04;;;;;;;;;;;21.50;53.30;;;;;;5052290;28;1332;-68
2021/01/02 12:06:30;;;;;;;;;;;21.50;53.40;;;;;;5053733;28;1251;-67
2021/01/02 12:08:56;;;;;;;;;;;21.50;53.40;;;;;;5053488;28;1339;-67
2021/01/02 12:11:28;;;;;;;;;;;21.50;53.40;;;;;;5053754;28;1368;-68
2021/01/02 12:13:53;;;;;;;;;;;21.50;53.50;;;;;;5052857;28;1127;-68
2021/01/02 12:16:19;;;;;;;;;;;21.40;53.50;;;;;;5053673;28;1913;-68
2021/01/02 12:18:44;;;;;;;;;;;21.40;53.50;;;;;;5053225;28;1155;-68
2021/01/02 12:21:16;;;;;;;;;;;21.40;53.60;;;;;;5053464;28;1335;-68
2021/01/02 12:23:42;;;;;;;;;;;21.40;53.60;;;;;;5053234;28;1325;-68
2021/01/02 12:26:08;;;;;;;;;;;21.40;53.70;;;;;;5053547;28;1310;-68
2021/01/02 12:28:33;;;;;;;;;;;21.40;53.70;;;;;;5053074;28;1315;-68
2021/01/02 12:30:59;;;;;;;;;;;21.30;53.70;;;;;;5053205;28;1806;-68
2021/01/02 12:33:24;;;;;;;;;;;21.40;53.70;;;;;;5052917;28;1376;-67
2021/01/02 12:35:50;;;;;;;;;;;21.30;53.70;;;;;;5052837;28;1965;-69
2021/01/02 12:38:15;;;;;;;;;;;21.30;53.80;;;;;;5051837;28;1429;-69
2021/01/02 12:40:42;;;;;;;;;;;21.30;53.80;;;;;;5051602;28;1320;-69
2021/01/02 12:43:07;;;;;;;;;;;21.30;53.90;;;;;;5035001;28;1446;-67
2021/01/02 12:45:32;;;;;;;;;;;21.30;53.90;;;;;;5052982;28;1402;-68
2021/01/02 12:47:58;;;;;;;;;;;21.30;54.00;;;;;;5051498;28;1290;-68
2021/01/02 12:50:23;;;;;;;;;;;21.20;54.00;;;;;;5052242;28;1284;-67
2021/01/02 12:52:49;;;;;;;;;;;21.20;54.00;;;;;;5052304;28;1123;-68
2021/01/02 12:55:14;;;;;;;;;;;21.20;54.00;;;;;;5052765;28;1965;-67
2021/01/02 12:57:40;;;;;;;;;;;21.20;54.00;;;;;;5051895;28;1333;-67
2021/01/02 13:00:06;;;;;;;;;;;21.20;54.00;;;;;;5052755;28;1088;-68
2021/01/02 13:02:31;;;;;;;;;;;21.20;54.10;;;;;;5053210;28;1279;-68
2021/01/02 13:04:57;;;;;;;;;;;21.20;54.10;;;;;;5052313;28;1311;-67
2021/01/02 13:07:23;;;;;;;;;;;21.20;54.20;;;;;;5052748;28;1096;-68
2021/01/02 13:09:49;;;;;;;;;;;21.20;54.20;;;;;;5052290;28;1443;-67
2021/01/02 13:12:14;;;;;;;;;;;21.20;54.20;;;;;;5052435;28;1279;-67
2021/01/02 13:14:40;;;;;;;;;;;21.20;54.20;;;;;;5049894;28;1902;-67
2021/01/02 13:17:07;;;;;;;;;;;21.10;54.20;;;;;;5052573;28;1159;-67
2021/01/02 13:19:32;;;;;;;;;;;21.10;54.20;;;;;;5052192;28;1311;-67
2021/01/02 13:21:59;;;;;;;;;;;21.10;54.30;;;;;;5052468;28;1282;-67
2021/01/02 13:24:25;;;;;;;;;;;21.10;54.30;;;;;;5050995;28;1357;-68
2021/01/02 13:26:51;;;;;;;;;;;21.10;54.30;;;;;;5051681;28;1017;-68
2021/01/02 13:29:17;;;;;;;;;;;21.10;54.30;;;;;;5052835;28;1147;-67
2021/01/02 13:31:43;;;;;;;;;;;21.10;54.30;;;;;;5052483;28;1192;-67
2021/01/02 13:34:09;;;;;;;;;;;21.10;54.40;;;;;;5051857;28;1906;-68
2021/01/02 13:36:35;;;;;;;;;;;21.10;54.40;;;;;;5050732;28;1329;-68
2021/01/02 13:39:00;;;;;;;;;;;21.10;54.40;;;;;;5052412;28;1072;-67
2021/01/02 13:41:26;;;;;;;;;;;21.10;54.40;;;;;;5050690;28;1269;-67
2021/01/02 13:43:52;;;;;;;;;;;21.00;55.00;;;;;;5050769;28;1131;-67
2021/01/02 13:46:17;;;;;;;;;;;21.00;54.50;;;;;;5050753;28;1064;-67
2021/01/02 13:48:42;;;;;;;;;;;21.00;54.50;;;;;;5051925;28;1182;-67
2021/01/02 13:51:11;;;;;;;;;;;21.00;54.50;;;;;;5052069;28;1372;-67
2021/01/02 13:53:36;;;;;;;;;;;21.00;54.50;;;;;;5051738;28;1369;-67
2021/01/02 13:56:02;;;;;;;;;;;21.00;54.50;;;;;;5051632;28;1911;-67
2021/01/02 13:58:27;;;;;;;;;;;21.00;54.60;;;;;;5051870;28;1119;-67
2021/01/02 14:00:53;;;;;;;;;;;21.00;54.60;;;;;;5048498;28;1929;-67
2021/01/02 14:03:18;;;;;;;;;;;21.00;54.60;;;;;;5043367;28;1591;-66
2021/01/02 14:05:44;;;;;;;;;;;21.00;54.70;;;;;;5053072;28;1213;-66
2021/01/02 14:08:09;;;;;;;;;;;21.00;54.70;;;;;;5054665;28;1347;-68
2021/01/02 14:10:35;;;;;;;;;;;21.00;54.70;;;;;;5054447;28;1641;-67
2021/01/02 14:13:00;;;;;;;;;;;20.90;54.60;;;;;;5054894;28;1309;-66
2021/01/02 14:15:26;;;;;;;;;;;21.00;54.70;;;;;;5063200;28;1948;-66
2021/01/02 14:17:51;;;;;;;;;;;20.90;54.60;;;;;;5074030;28;1279;-66
2021/01/02 14:20:17;;;;;;;;;;;20.90;54.70;;;;;;5072321;28;926;-66
2021/01/02 14:22:43;;;;;;;;;;;20.90;54.70;;;;;;5074769;28;1302;-66
2021/01/02 14:25:09;;;;;;;;;;;20.90;54.80;;;;;;5072670;28;1359;-66
2021/01/02 14:27:34;;;;;;;;;;;20.90;54.80;;;;;;5074437;28;1301;-67
2021/01/02 14:30:01;;;;;;;;;;;20.90;54.80;;;;;;5074851;28;1369;-66
2021/01/02 14:32:26;;;;;;;;;;;20.90;54.80;;;;;;5074114;28;1365;-66
2021/01/02 14:34:52;;;;;;;;;;;20.90;54.80;;;;;;5074471;28;1906;-66